sensor_id;sensor_type;location;lat;lon;timestamp;pressure;altitude;pressure_sealevel;temperature;humidity
21361;BME280;10839;43.206;23.550;2023-06-24T00:00:09;97046.84;;;23.63;100.00
21361;BME280;10839;43.206;23.550;2023-06-24T00:02:37;97048.72;;;23.73;100.00
21361;BME280;10839;43.206;23.550;2023-06-24T00:05:04;97038.28;;;23.70;100.00
21361;BME280;10839;43.206;23.550;2023-06-24T00:07:32;97046.78;;;23.78;100.00
21361;BME280;10839;43.206;23.550;2023-06-24T00:09:59;97044.91;;;23.69;100.00
21361;BME280;10839;43.206;23.550;2023-06-24T00:12:25;97033.34;;;23.67;100.00
21361;BME280;10839;43.206;23.550;2023-06-24T00:14:52;97029.44;;;23.78;100.00
21361;BME280;10839;43.206;23.550;2023-06-24T00:17:18;97030.03;;;23.75;100.00
21361;BME280;10839;43.206;23.550;2023-06-24T00:19:43;97021.19;;;23.83;100.00
21361;BME280;10839;43.206;23.550;2023-06-24T00:22:09;97032.22;;;23.73;100.00
21361;BME280;10839;43.206;23.550;2023-06-24T00:24:35;97032.25;;;23.68;100.00
21361;BME280;10839;43.206;23.550;2023-06-24T00:27:01;97030.31;;;23.68;100.00
21361;BME280;10839;43.206;23.550;2023-06-24T00:29:27;97032.78;;;23.70;100.00
21361;BME280;10839;43.206;23.550;2023-06-24T00:31:53;97038.03;;;23.66;100.00
21361;BME280;10839;43.206;23.550;2023-06-24T00:34:20;97036.13;;;23.62;100.00
21361;BME280;10839;43.206;23.550;2023-06-24T00:36:46;97036.13;;;23.57;100.00
21361;BME280;10839;43.206;23.550;2023-06-24T00:39:12;97041.34;;;23.58;100.00
21361;BME280;10839;43.206;23.550;2023-06-24T00:41:38;97050.97;;;23.56;100.00
21361;BME280;10839;43.206;23.550;2023-06-24T00:44:04;97041.38;;;23.48;100.00
21361;BME280;10839;43.206;23.550;2023-06-24T00:46:30;97050.69;;;23.57;100.00
21361;BME280;10839;43.206;23.550;2023-06-24T00:48:58;97049.31;;;23.60;100.00
21361;BME280;10839;43.206;23.550;2023-06-24T00:51:26;97043.25;;;23.63;100.00
21361;BME280;10839;43.206;23.550;2023-06-24T00:53:55;97031.38;;;23.72;100.00
21361;BME280;10839;43.206;23.550;2023-06-24T00:56:22;97023.53;;;23.41;100.00
21361;BME280;10839;43.206;23.550;2023-06-24T00:58:50;97029.56;;;23.48;100.00
21361;BME280;10839;43.206;23.550;2023-06-24T01:01:18;97027.41;;;23.40;100.00
21361;BME280;10839;43.206;23.550;2023-06-24T01:03:45;97028.25;;;23.30;100.00
21361;BME280;10839;43.206;23.550;2023-06-24T01:06:13;97019.97;;;23.50;100.00
21361;BME280;10839;43.206;23.550;2023-06-24T01:08:39;97007.03;;;23.51;100.00
21361;BME280;10839;43.206;23.550;2023-06-24T01:11:05;97017.22;;;23.50;100.00
21361;BME280;10839;43.206;23.550;2023-06-24T01:13:30;97005.97;;;23.42;100.00
21361;BME280;10839;43.206;23.550;2023-06-24T01:16:00;97013.66;;;23.45;100.00
21361;BME280;10839;43.206;23.550;2023-06-24T01:18:46;97016.91;;;23.57;100.00
21361;BME280;10839;43.206;23.550;2023-06-24T01:21:47;97010.59;;;23.56;100.00
21361;BME280;10839;43.206;23.550;2023-06-24T01:24:39;96998.22;;;23.59;100.00
21361;BME280;10839;43.206;23.550;2023-06-24T01:27:46;97002.06;;;23.58;100.00
21361;BME280;10839;43.206;23.550;2023-06-24T01:33:10;97001.34;;;23.27;100.00
21361;BME280;10839;43.206;23.550;2023-06-24T01:35:40;97006.00;;;23.27;100.00
21361;BME280;10839;43.206;23.550;2023-06-24T01:38:18;97001.81;;;23.44;100.00
21361;BME280;10839;43.206;23.550;2023-06-24T01:40:48;97010.09;;;23.39;100.00
21361;BME280;10839;43.206;23.550;2023-06-24T01:43:16;97013.06;;;23.53;100.00
21361;BME280;10839;43.206;23.550;2023-06-24T01:45:52;97001.56;;;23.41;100.00
21361;BME280;10839;43.206;23.550;2023-06-24T01:50:59;97009.75;;;23.56;100.00
21361;BME280;10839;43.206;23.550;2023-06-24T01:53:34;97017.97;;;23.61;100.00
21361;BME280;10839;43.206;23.550;2023-06-24T01:56:02;97015.50;;;23.64;100.00
21361;BME280;10839;43.206;23.550;2023-06-24T01:58:30;97008.66;;;23.62;100.00
21361;BME280;10839;43.206;23.550;2023-06-24T02:00:58;97011.91;;;23.69;100.00
21361;BME280;10839;43.206;23.550;2023-06-24T02:03:25;97026.16;;;23.76;100.00
21361;BME280;10839;43.206;23.550;2023-06-24T02:05:53;97022.94;;;23.64;100.00
21361;BME280;10839;43.206;23.550;2023-06-24T02:08:21;97026.19;;;23.66;100.00
21361;BME280;10839;43.206;23.550;2023-06-24T02:10:49;97020.97;;;23.69;100.00
21361;BME280;10839;43.206;23.550;2023-06-24T02:13:16;97015.72;;;23.73;99.69
21361;BME280;10839;43.206;23.550;2023-06-24T02:15:44;97011.81;;;23.84;94.52
21361;BME280;10839;43.206;23.550;2023-06-24T02:18:12;97018.97;;;23.90;91.60
21361;BME280;10839;43.206;23.550;2023-06-24T02:20:41;97036.47;;;24.09;91.43
21361;BME280;10839;43.206;23.550;2023-06-24T02:23:10;97046.94;;;24.12;91.77
21361;BME280;10839;43.206;23.550;2023-06-24T02:25:37;97046.38;;;24.10;92.78
21361;BME280;10839;43.206;23.550;2023-06-24T02:28:08;97061.53;;;23.97;94.80
21361;BME280;10839;43.206;23.550;2023-06-24T02:30:37;97062.91;;;24.05;94.66
21361;BME280;10839;43.206;23.550;2023-06-24T02:33:03;97069.22;;;24.06;96.99
21361;BME280;10839;43.206;23.550;2023-06-24T02:35:29;97084.81;;;24.25;98.06
21361;BME280;10839;43.206;23.550;2023-06-24T02:37:55;97093.66;;;24.17;100.00
21361;BME280;10839;43.206;23.550;2023-06-24T02:40:21;97098.94;;;24.04;100.00
21361;BME280;10839;43.206;23.550;2023-06-24T02:42:47;97112.41;;;24.05;100.00
21361;BME280;10839;43.206;23.550;2023-06-24T02:45:14;97115.72;;;24.02;100.00
21361;BME280;10839;43.206;23.550;2023-06-24T02:47:43;97116.81;;;24.01;100.00
21361;BME280;10839;43.206;23.550;2023-06-24T02:50:12;97127.72;;;24.21;100.00
21361;BME280;10839;43.206;23.550;2023-06-24T02:52:39;97127.16;;;24.24;100.00
21361;BME280;10839;43.206;23.550;2023-06-24T02:55:08;97127.16;;;24.24;100.00
21361;BME280;10839;43.206;23.550;2023-06-24T02:57:37;97126.66;;;24.17;100.00
21361;BME280;10839;43.206;23.550;2023-06-24T03:00:26;97122.69;;;24.38;100.00
21361;BME280;10839;43.206;23.550;2023-06-24T03:03:08;97135.50;;;23.99;99.96
21361;BME280;10839;43.206;23.550;2023-06-24T03:05:38;97137.16;;;23.90;98.64
21361;BME280;10839;43.206;23.550;2023-06-24T03:08:06;97130.50;;;24.16;95.18
21361;BME280;10839;43.206;23.550;2023-06-24T03:10:36;97132.38;;;24.79;90.12
21361;BME280;10839;43.206;23.550;2023-06-24T03:13:05;97125.84;;;24.70;88.25
21361;BME280;10839;43.206;23.550;2023-06-24T03:15:54;97127.47;;;24.71;87.43
21361;BME280;10839;43.206;23.550;2023-06-24T03:18:20;97130.88;;;24.53;87.79
21361;BME280;10839;43.206;23.550;2023-06-24T03:20:47;97127.97;;;24.83;85.38
21361;BME280;10839;43.206;23.550;2023-06-24T03:23:17;97131.00;;;25.15;83.05
21361;BME280;10839;43.206;23.550;2023-06-24T03:25:43;97119.28;;;25.34;80.63
21361;BME280;10839;43.206;23.550;2023-06-24T03:28:10;97124.06;;;25.57;80.33
21361;BME280;10839;43.206;23.550;2023-06-24T03:30:45;97120.25;;;26.05;77.81
21361;BME280;10839;43.206;23.550;2023-06-24T03:33:14;97126.94;;;26.22;76.57
21361;BME280;10839;43.206;23.550;2023-06-24T03:35:44;97130.69;;;26.92;73.87
21361;BME280;10839;43.206;23.550;2023-06-24T03:38:13;97126.75;;;27.95;69.21
21361;BME280;10839;43.206;23.550;2023-06-24T03:40:39;97127.66;;;27.90;68.61
21361;BME280;10839;43.206;23.550;2023-06-24T03:43:05;97122.66;;;28.06;68.21
21361;BME280;10839;43.206;23.550;2023-06-24T03:45:32;97123.47;;;28.60;67.65
21361;BME280;10839;43.206;23.550;2023-06-24T03:47:58;97125.81;;;29.16;65.23
21361;BME280;10839;43.206;23.550;2023-06-24T03:50:25;97128.56;;;29.38;64.24
21361;BME280;10839;43.206;23.550;2023-06-24T03:52:52;97127.31;;;29.44;65.20
21361;BME280;10839;43.206;23.550;2023-06-24T03:55:18;97126.53;;;30.36;59.91
21361;BME280;10839;43.206;23.550;2023-06-24T03:57:43;97126.53;;;30.05;60.71
21361;BME280;10839;43.206;23.550;2023-06-24T04:00:10;97134.63;;;30.24;61.67
21361;BME280;10839;43.206;23.550;2023-06-24T04:02:43;97120.38;;;29.33;63.18
21361;BME280;10839;43.206;23.550;2023-06-24T04:05:10;97120.50;;;30.12;59.58
21361;BME280;10839;43.206;23.550;2023-06-24T04:07:36;97127.19;;;30.50;56.62
21361;BME280;10839;43.206;23.550;2023-06-24T04:10:05;97136.09;;;30.69;57.84
21361;BME280;10839;43.206;23.550;2023-06-24T04:12:37;97140.09;;;30.37;60.88
21361;BME280;10839;43.206;23.550;2023-06-24T04:15:04;97156.66;;;30.68;60.49
21361;BME280;10839;43.206;23.550;2023-06-24T04:17:32;97160.31;;;30.29;61.53
21361;BME280;10839;43.206;23.550;2023-06-24T04:19:59;97153.28;;;29.70;63.82
21361;BME280;10839;43.206;23.550;2023-06-24T04:22:26;97155.59;;;29.55;64.45
21361;BME280;10839;43.206;23.550;2023-06-24T04:24:56;97158.03;;;29.56;63.82
21361;BME280;10839;43.206;23.550;2023-06-24T04:27:23;97157.13;;;29.39;64.54
21361;BME280;10839;43.206;23.550;2023-06-24T04:29:49;97157.00;;;29.44;63.72
21361;BME280;10839;43.206;23.550;2023-06-24T04:32:15;97160.31;;;29.98;62.09
21361;BME280;10839;43.206;23.550;2023-06-24T04:34:41;97150.91;;;30.17;61.01
21361;BME280;10839;43.206;23.550;2023-06-24T04:37:06;97154.50;;;31.38;57.85
21361;BME280;10839;43.206;23.550;2023-06-24T04:39:32;97155.50;;;31.42;58.06
21361;BME280;10839;43.206;23.550;2023-06-24T04:41:58;97162.66;;;31.09;59.06
21361;BME280;10839;43.206;23.550;2023-06-24T04:44:24;97163.16;;;31.02;59.68
21361;BME280;10839;43.206;23.550;2023-06-24T04:46:50;97165.47;;;31.52;58.10
21361;BME280;10839;43.206;23.550;2023-06-24T04:49:18;97166.41;;;30.96;59.33
21361;BME280;10839;43.206;23.550;2023-06-24T04:51:44;97173.16;;;31.29;58.98
21361;BME280;10839;43.206;23.550;2023-06-24T04:54:10;97173.16;;;31.46;57.46
21361;BME280;10839;43.206;23.550;2023-06-24T04:56:39;97169.31;;;32.57;54.61
21361;BME280;10839;43.206;23.550;2023-06-24T04:59:05;97173.13;;;33.72;50.81
21361;BME280;10839;43.206;23.550;2023-06-24T05:01:31;97168.47;;;33.76;50.25
21361;BME280;10839;43.206;23.550;2023-06-24T05:03:57;97167.72;;;34.20;49.13
21361;BME280;10839;43.206;23.550;2023-06-24T05:06:22;97166.38;;;34.87;47.46
21361;BME280;10839;43.206;23.550;2023-06-24T05:08:49;97171.25;;;34.77;46.50
21361;BME280;10839;43.206;23.550;2023-06-24T05:11:15;97162.63;;;33.69;49.29
21361;BME280;10839;43.206;23.550;2023-06-24T05:13:41;97160.56;;;33.78;49.16
21361;BME280;10839;43.206;23.550;2023-06-24T05:16:07;97165.59;;;34.29;48.50
21361;BME280;10839;43.206;23.550;2023-06-24T05:18:32;97155.41;;;35.06;46.26
21361;BME280;10839;43.206;23.550;2023-06-24T05:20:58;97172.59;;;36.27;43.86
21361;BME280;10839;43.206;23.550;2023-06-24T05:23:24;97161.06;;;35.73;44.35
21361;BME280;10839;43.206;23.550;2023-06-24T05:25:50;97169.88;;;35.59;44.47
21361;BME280;10839;43.206;23.550;2023-06-24T05:28:15;97169.00;;;35.71;44.07
21361;BME280;10839;43.206;23.550;2023-06-24T05:30:44;97170.81;;;35.91;43.63
21361;BME280;10839;43.206;23.550;2023-06-24T05:33:10;97181.56;;;35.49;44.28
21361;BME280;10839;43.206;23.550;2023-06-24T05:35:36;97172.59;;;35.44;44.86
21361;BME280;10839;43.206;23.550;2023-06-24T05:38:05;97171.91;;;36.45;43.16
21361;BME280;10839;43.206;23.550;2023-06-24T05:40:31;97165.56;;;37.64;41.11
21361;BME280;10839;43.206;23.550;2023-06-24T05:42:57;97166.63;;;37.06;41.33
21361;BME280;10839;43.206;23.550;2023-06-24T05:45:23;97171.44;;;36.74;41.06
21361;BME280;10839;43.206;23.550;2023-06-24T05:47:51;97178.16;;;36.54;41.24
21361;BME280;10839;43.206;23.550;2023-06-24T05:50:16;97170.94;;;36.53;41.73
21361;BME280;10839;43.206;23.550;2023-06-24T05:52:42;97170.53;;;37.01;40.56
21361;BME280;10839;43.206;23.550;2023-06-24T05:55:09;97172.69;;;37.96;38.67
21361;BME280;10839;43.206;23.550;2023-06-24T05:57:35;97168.56;;;38.77;37.06
21361;BME280;10839;43.206;23.550;2023-06-24T06:00:00;97168.47;;;38.28;37.46
21361;BME280;10839;43.206;23.550;2023-06-24T06:02:38;97178.06;;;38.47;37.77
21361;BME280;10839;43.206;23.550;2023-06-24T06:05:05;97171.28;;;39.19;36.42
21361;BME280;10839;43.206;23.550;2023-06-24T06:07:32;97178.00;;;39.67;35.42
21361;BME280;10839;43.206;23.550;2023-06-24T06:09:57;97184.19;;;40.09;34.54
21361;BME280;10839;43.206;23.550;2023-06-24T06:12:23;97186.59;;;39.47;34.51
21361;BME280;10839;43.206;23.550;2023-06-24T06:14:49;97180.47;;;38.93;35.44
21361;BME280;10839;43.206;23.550;2023-06-24T06:17:15;97178.63;;;40.16;33.90
21361;BME280;10839;43.206;23.550;2023-06-24T06:19:41;97184.97;;;40.06;34.35
21361;BME280;10839;43.206;23.550;2023-06-24T06:22:08;97182.16;;;39.46;35.33
21361;BME280;10839;43.206;23.550;2023-06-24T06:24:34;97186.44;;;40.69;33.84
21361;BME280;10839;43.206;23.550;2023-06-24T06:27:00;97178.91;;;39.74;34.73
21361;BME280;10839;43.206;23.550;2023-06-24T06:29:26;97182.41;;;39.94;35.18
21361;BME280;10839;43.206;23.550;2023-06-24T06:31:52;97174.31;;;39.36;35.17
21361;BME280;10839;43.206;23.550;2023-06-24T06:34:20;97172.72;;;39.35;35.03
21361;BME280;10839;43.206;23.550;2023-06-24T06:36:45;97172.63;;;39.55;34.21
21361;BME280;10839;43.206;23.550;2023-06-24T06:39:11;97177.94;;;40.26;33.70
21361;BME280;10839;43.206;23.550;2023-06-24T06:41:37;97181.94;;;40.25;33.06
21361;BME280;10839;43.206;23.550;2023-06-24T06:44:06;97173.38;;;39.85;34.04
21361;BME280;10839;43.206;23.550;2023-06-24T06:46:32;97174.78;;;40.31;33.57
21361;BME280;10839;43.206;23.550;2023-06-24T06:48:58;97177.47;;;39.31;34.73
21361;BME280;10839;43.206;23.550;2023-06-24T06:51:25;97192.13;;;40.00;34.20
21361;BME280;10839;43.206;23.550;2023-06-24T06:53:51;97179.59;;;39.94;34.76
21361;BME280;10839;43.206;23.550;2023-06-24T06:56:21;97192.72;;;39.83;34.39
21361;BME280;10839;43.206;23.550;2023-06-24T06:58:48;97188.59;;;39.77;34.81
21361;BME280;10839;43.206;23.550;2023-06-24T07:01:13;97183.28;;;40.01;34.25
21361;BME280;10839;43.206;23.550;2023-06-24T07:03:39;97189.19;;;39.33;34.50
21361;BME280;10839;43.206;23.550;2023-06-24T07:06:05;97182.34;;;39.61;33.59
21361;BME280;10839;43.206;23.550;2023-06-24T07:08:31;97188.81;;;39.91;33.76
21361;BME280;10839;43.206;23.550;2023-06-24T07:10:57;97181.16;;;39.62;34.24
21361;BME280;10839;43.206;23.550;2023-06-24T07:13:23;97185.53;;;39.29;34.35
21361;BME280;10839;43.206;23.550;2023-06-24T07:15:48;97192.13;;;40.00;33.34
21361;BME280;10839;43.206;23.550;2023-06-24T07:18:14;97190.25;;;39.78;33.76
21361;BME280;10839;43.206;23.550;2023-06-24T07:20:40;97195.44;;;39.46;33.65
21361;BME280;10839;43.206;23.550;2023-06-24T07:23:06;97189.56;;;38.83;34.79
21361;BME280;10839;43.206;23.550;2023-06-24T07:25:32;97188.09;;;39.41;34.51
21361;BME280;10839;43.206;23.550;2023-06-24T07:27:58;97191.75;;;39.16;34.41
21361;BME280;10839;43.206;23.550;2023-06-24T07:30:23;97193.69;;;39.38;34.61
21361;BME280;10839;43.206;23.550;2023-06-24T07:32:49;97179.75;;;39.48;34.18
21361;BME280;10839;43.206;23.550;2023-06-24T07:35:15;97190.25;;;39.78;34.13
21361;BME280;10839;43.206;23.550;2023-06-24T07:37:41;97189.09;;;39.53;34.23
21361;BME280;10839;43.206;23.550;2023-06-24T07:40:08;97189.72;;;39.42;34.69
21361;BME280;10839;43.206;23.550;2023-06-24T07:42:34;97186.31;;;39.86;34.56
21361;BME280;10839;43.206;23.550;2023-06-24T07:45:00;97197.53;;;39.26;36.69
21361;BME280;10839;43.206;23.550;2023-06-24T07:47:28;97201.09;;;39.23;37.56
21361;BME280;10839;43.206;23.550;2023-06-24T07:49:58;97197.31;;;39.65;37.02
21361;BME280;10839;43.206;23.550;2023-06-24T07:52:24;97198.22;;;39.20;37.54
21361;BME280;10839;43.206;23.550;2023-06-24T07:54:50;97197.50;;;39.49;37.47
21361;BME280;10839;43.206;23.550;2023-06-24T07:57:15;97197.06;;;39.21;37.34
21361;BME280;10839;43.206;23.550;2023-06-24T07:59:42;97191.03;;;39.00;38.06
21361;BME280;10839;43.206;23.550;2023-06-24T08:02:08;97197.94;;;39.51;37.31
21361;BME280;10839;43.206;23.550;2023-06-24T08:04:34;97194.25;;;39.47;37.45
21361;BME280;10839;43.206;23.550;2023-06-24T08:07:00;97198.25;;;39.76;37.05
21361;BME280;10839;43.206;23.550;2023-06-24T08:09:28;97208.94;;;39.89;37.04
21361;BME280;10839;43.206;23.550;2023-06-24T08:11:53;97199.31;;;39.94;36.48
21361;BME280;10839;43.206;23.550;2023-06-24T08:14:20;97223.72;;;40.12;36.69
21361;BME280;10839;43.206;23.550;2023-06-24T08:16:46;97207.75;;;40.27;36.66
21361;BME280;10839;43.206;23.550;2023-06-24T08:19:12;97205.78;;;39.65;37.74
21361;BME280;10839;43.206;23.550;2023-06-24T08:21:37;97205.13;;;39.48;37.36
21361;BME280;10839;43.206;23.550;2023-06-24T08:24:04;97197.47;;;39.79;37.89
21361;BME280;10839;43.206;23.550;2023-06-24T08:26:30;97200.63;;;39.74;37.87
21361;BME280;10839;43.206;23.550;2023-06-24T08:28:56;97205.78;;;39.65;37.33
21361;BME280;10839;43.206;23.550;2023-06-24T08:31:24;97196.34;;;39.53;38.19
21361;BME280;10839;43.206;23.550;2023-06-24T08:33:53;97199.69;;;39.63;37.14
21361;BME280;10839;43.206;23.550;2023-06-24T08:36:22;97200.78;;;39.28;38.14
21361;BME280;10839;43.206;23.550;2023-06-24T08:38:51;97201.13;;;39.01;39.01
21361;BME280;10839;43.206;23.550;2023-06-24T08:41:17;97193.88;;;38.13;40.94
21361;BME280;10839;43.206;23.550;2023-06-24T08:43:42;97195.59;;;38.59;39.98
21361;BME280;10839;43.206;23.550;2023-06-24T08:46:08;97188.50;;;38.46;40.01
21361;BME280;10839;43.206;23.550;2023-06-24T08:48:35;97184.09;;;38.07;41.28
21361;BME280;10839;43.206;23.550;2023-06-24T08:51:08;97178.34;;;38.00;40.86
21361;BME280;10839;43.206;23.550;2023-06-24T08:53:37;97186.16;;;39.19;39.44
21361;BME280;10839;43.206;23.550;2023-06-24T08:56:04;97194.19;;;39.17;39.68
21361;BME280;10839;43.206;23.550;2023-06-24T08:58:30;97178.84;;;38.66;40.39
21361;BME280;10839;43.206;23.550;2023-06-24T09:00:56;97181.44;;;38.78;40.76
21361;BME280;10839;43.206;23.550;2023-06-24T09:03:22;97177.28;;;38.27;39.82
21361;BME280;10839;43.206;23.550;2023-06-24T09:05:48;97180.66;;;38.78;39.77
21361;BME280;10839;43.206;23.550;2023-06-24T09:08:14;97170.94;;;38.75;40.02
21361;BME280;10839;43.206;23.550;2023-06-24T09:10:41;97171.69;;;38.72;40.46
21361;BME280;10839;43.206;23.550;2023-06-24T09:13:07;97178.72;;;38.59;40.01
21361;BME280;10839;43.206;23.550;2023-06-24T09:15:34;97178.72;;;38.59;39.72
21361;BME280;10839;43.206;23.550;2023-06-24T09:18:01;97174.56;;;38.53;40.05
21361;BME280;10839;43.206;23.550;2023-06-24T09:20:28;97171.06;;;38.82;39.75
21361;BME280;10839;43.206;23.550;2023-06-24T09:23:00;97169.66;;;38.50;40.32
21361;BME280;10839;43.206;23.550;2023-06-24T09:25:27;97175.63;;;39.42;39.02
21361;BME280;10839;43.206;23.550;2023-06-24T09:27:53;97156.72;;;38.91;39.94
21361;BME280;10839;43.206;23.550;2023-06-24T09:30:23;97174.88;;;38.48;39.59
21361;BME280;10839;43.206;23.550;2023-06-24T09:32:49;97179.31;;;38.49;39.98
21361;BME280;10839;43.206;23.550;2023-06-24T09:35:23;97173.88;;;38.82;39.65
21361;BME280;10839;43.206;23.550;2023-06-24T09:37:53;97182.53;;;39.45;38.91
21361;BME280;10839;43.206;23.550;2023-06-24T09:40:20;97181.41;;;39.01;38.95
21361;BME280;10839;43.206;23.550;2023-06-24T09:42:53;97186.22;;;39.79;38.01
21361;BME280;10839;43.206;23.550;2023-06-24T09:45:24;97182.25;;;39.27;38.56
21361;BME280;10839;43.206;23.550;2023-06-24T09:47:51;97191.22;;;38.84;39.09
21361;BME280;10839;43.206;23.550;2023-06-24T09:50:17;97185.97;;;37.99;40.50
21361;BME280;10839;43.206;23.550;2023-06-24T09:52:45;97199.00;;;38.26;40.83
21361;BME280;10839;43.206;23.550;2023-06-24T09:55:15;97189.25;;;38.88;40.20
21361;BME280;10839;43.206;23.550;2023-06-24T09:57:51;97196.78;;;38.58;41.26
21361;BME280;10839;43.206;23.550;2023-06-24T10:00:19;97197.88;;;38.99;40.39
21361;BME280;10839;43.206;23.550;2023-06-24T10:02:48;97203.22;;;38.81;40.23
21361;BME280;10839;43.206;23.550;2023-06-24T10:05:15;97193.75;;;38.06;41.33
21361;BME280;10839;43.206;23.550;2023-06-24T10:07:41;97191.09;;;37.94;41.17
21361;BME280;10839;43.206;23.550;2023-06-24T10:10:08;97195.31;;;38.45;41.11
21361;BME280;10839;43.206;23.550;2023-06-24T10:12:37;97196.44;;;38.18;40.95
21361;BME280;10839;43.206;23.550;2023-06-24T10:15:04;97186.06;;;37.84;41.87
21361;BME280;10839;43.206;23.550;2023-06-24T10:17:30;97184.47;;;38.66;41.10
21361;BME280;10839;43.206;23.550;2023-06-24T10:19:56;97182.06;;;38.23;41.38
21361;BME280;10839;43.206;23.550;2023-06-24T10:22:23;97178.59;;;37.72;42.40
21361;BME280;10839;43.206;23.550;2023-06-24T10:24:52;97176.38;;;38.19;42.07
21361;BME280;10839;43.206;23.550;2023-06-24T10:27:21;97167.06;;;38.38;41.24
21361;BME280;10839;43.206;23.550;2023-06-24T10:29:52;97163.00;;;38.35;40.94
21361;BME280;10839;43.206;23.550;2023-06-24T10:32:19;97172.69;;;38.38;41.15
21361;BME280;10839;43.206;23.550;2023-06-24T10:34:47;97164.66;;;38.40;41.17
21361;BME280;10839;43.206;23.550;2023-06-24T10:37:18;97169.06;;;38.60;40.18
21361;BME280;10839;43.206;23.550;2023-06-24T10:39:55;97151.47;;;37.10;43.54
21361;BME280;10839;43.206;23.550;2023-06-24T10:44:52;97135.84;;;34.69;50.06
21361;BME280;10839;43.206;23.550;2023-06-24T10:47:18;97137.94;;;33.92;51.40
21361;BME280;10839;43.206;23.550;2023-06-24T10:49:45;97123.88;;;34.00;51.72
21361;BME280;10839;43.206;23.550;2023-06-24T10:52:12;97124.69;;;34.01;52.46
21361;BME280;10839;43.206;23.550;2023-06-24T10:54:40;97131.16;;;34.25;51.68
21361;BME280;10839;43.206;23.550;2023-06-24T10:57:06;97128.03;;;34.51;51.44
21361;BME280;10839;43.206;23.550;2023-06-24T10:59:42;97119.41;;;34.80;51.07
21361;BME280;10839;43.206;23.550;2023-06-24T11:02:17;97111.09;;;34.96;50.59
21361;BME280;10839;43.206;23.550;2023-06-24T11:04:48;97117.41;;;34.93;51.37
21361;BME280;10839;43.206;23.550;2023-06-24T11:07:15;97107.44;;;35.59;50.35
21361;BME280;10839;43.206;23.550;2023-06-24T11:09:48;97103.47;;;35.60;49.74
21361;BME280;10839;43.206;23.550;2023-06-24T11:12:15;97107.44;;;35.59;49.47
21361;BME280;10839;43.206;23.550;2023-06-24T11:14:40;97096.09;;;35.40;50.93
21361;BME280;10839;43.206;23.550;2023-06-24T11:17:06;97102.03;;;35.66;50.69
21361;BME280;10839;43.206;23.550;2023-06-24T11:19:32;97102.28;;;35.61;49.88
21361;BME280;10839;43.206;23.550;2023-06-24T11:22:00;97093.97;;;35.37;50.30
21361;BME280;10839;43.206;23.550;2023-06-24T11:24:27;97086.66;;;35.60;49.27
21361;BME280;10839;43.206;23.550;2023-06-24T11:26:54;97090.50;;;35.83;48.72
21361;BME280;10839;43.206;23.550;2023-06-24T11:29:21;97089.41;;;35.44;48.50
21361;BME280;10839;43.206;23.550;2023-06-24T11:31:48;97089.44;;;34.93;49.56
21361;BME280;10839;43.206;23.550;2023-06-24T11:34:15;97086.53;;;35.29;48.00
21361;BME280;10839;43.206;23.550;2023-06-24T11:36:41;97100.00;;;35.51;47.58
21361;BME280;10839;43.206;23.550;2023-06-24T11:39:07;97098.03;;;35.12;49.09
21361;BME280;10839;43.206;23.550;2023-06-24T11:41:33;97098.75;;;35.36;49.07
21361;BME280;10839;43.206;23.550;2023-06-24T11:43:59;97094.47;;;35.27;50.55
21361;BME280;10839;43.206;23.550;2023-06-24T11:46:29;97094.72;;;35.77;50.15
21361;BME280;10839;43.206;23.550;2023-06-24T11:49:06;97103.22;;;35.65;50.26
21361;BME280;10839;43.206;23.550;2023-06-24T11:51:34;97108.09;;;36.11;49.12
21361;BME280;10839;43.206;23.550;2023-06-24T11:54:01;97108.63;;;36.01;48.97
21361;BME280;10839;43.206;23.550;2023-06-24T11:56:38;97113.91;;;36.49;47.15
21361;BME280;10839;43.206;23.550;2023-06-24T11:59:21;97110.97;;;36.30;47.74
21361;BME280;10839;43.206;23.550;2023-06-24T12:01:53;97107.00;;;36.00;47.61
21361;BME280;10839;43.206;23.550;2023-06-24T12:04:20;97101.19;;;35.50;48.29
21361;BME280;10839;43.206;23.550;2023-06-24T12:06:46;97098.75;;;35.64;48.98
21361;BME280;10839;43.206;23.550;2023-06-24T12:09:12;97094.03;;;35.80;48.89
21361;BME280;10839;43.206;23.550;2023-06-24T12:11:38;97095.41;;;35.86;48.96
21361;BME280;10839;43.206;23.550;2023-06-24T12:14:06;97079.00;;;36.00;49.08
21361;BME280;10839;43.206;23.550;2023-06-24T12:16:32;97093.44;;;36.02;49.04
21361;BME280;10839;43.206;23.550;2023-06-24T12:18:58;97089.00;;;35.85;49.20
21361;BME280;10839;43.206;23.550;2023-06-24T12:21:24;97084.25;;;35.74;49.80
21361;BME280;10839;43.206;23.550;2023-06-24T12:23:49;97079.28;;;35.83;50.10
21361;BME280;10839;43.206;23.550;2023-06-24T12:26:15;97074.75;;;35.63;49.26
21361;BME280;10839;43.206;23.550;2023-06-24T12:28:41;97069.31;;;35.15;51.11
21361;BME280;10839;43.206;23.550;2023-06-24T12:31:07;97061.09;;;35.77;50.31
21361;BME280;10839;43.206;23.550;2023-06-24T12:33:33;97064.63;;;35.58;50.89
21361;BME280;10839;43.206;23.550;2023-06-24T12:35:59;97061.38;;;35.72;51.07
21361;BME280;10839;43.206;23.550;2023-06-24T12:38:25;97058.25;;;35.89;49.57
21361;BME280;10839;43.206;23.550;2023-06-24T12:40:51;97069.72;;;35.41;50.10
21361;BME280;10839;43.206;23.550;2023-06-24T12:43:18;97068.53;;;35.02;51.59
21361;BME280;10839;43.206;23.550;2023-06-24T12:45:44;97085.19;;;35.11;51.96
21361;BME280;10839;43.206;23.550;2023-06-24T12:48:10;97086.41;;;34.98;51.15
21361;BME280;10839;43.206;23.550;2023-06-24T12:50:36;97083.63;;;34.61;51.74
21361;BME280;10839;43.206;23.550;2023-06-24T12:53:02;97086.44;;;34.73;51.55
21361;BME280;10839;43.206;23.550;2023-06-24T12:55:29;97074.66;;;34.32;53.58
21361;BME280;10839;43.206;23.550;2023-06-24T12:57:56;97072.69;;;34.68;53.04